createdAt,value
2023-04-06T00:01:05.229Z,14.44
2023-04-06T00:03:32.267Z,14.43
2023-04-06T00:05:59.183Z,14.42
2023-04-06T00:08:27.542Z,14.36
2023-04-06T00:10:54.412Z,14.32
2023-04-06T00:13:21.638Z,14.29
2023-04-06T00:15:48.547Z,14.28
2023-04-06T00:18:15.604Z,14.24
2023-04-06T00:20:42.594Z,14.24
2023-04-06T00:23:09.487Z,14.21
2023-04-06T00:25:36.500Z,14.22
2023-04-06T00:28:04.677Z,14.22
2023-04-06T00:30:31.611Z,14.20
2023-04-06T00:32:58.539Z,14.13
2023-04-06T00:35:25.510Z,14.12
2023-04-06T00:37:52.442Z,14.10
2023-04-06T00:40:19.755Z,14.02
2023-04-06T00:42:46.804Z,13.99
2023-04-06T00:45:13.728Z,13.95
2023-04-06T00:47:41.227Z,13.91
2023-04-06T00:50:08.900Z,13.88
2023-04-06T00:52:36.762Z,13.79
2023-04-06T00:55:05.792Z,13.79
2023-04-06T00:57:34.855Z,13.73
2023-04-06T01:00:01.896Z,13.69
2023-04-06T01:02:29.035Z,13.69
2023-04-06T01:04:56.385Z,13.68
2023-04-06T01:07:28.630Z,13.62
2023-04-06T01:10:10.709Z,13.58
2023-04-06T01:12:43.395Z,13.53
2023-04-06T01:15:20.895Z,13.50
2023-04-06T01:17:51.384Z,13.48
2023-04-06T01:20:18.844Z,13.45
2023-04-06T01:22:45.991Z,13.43
2023-04-06T01:25:13.684Z,13.37
2023-04-06T01:28:03.059Z,13.29
2023-04-06T01:30:48.799Z,13.29
2023-04-06T01:33:29.568Z,13.24
2023-04-06T01:36:04.772Z,13.26
2023-04-06T01:38:32.070Z,13.25
2023-04-06T01:40:59.000Z,13.23
2023-04-06T01:43:30.286Z,13.24
2023-04-06T01:46:06.769Z,13.23
2023-04-06T01:48:40.183Z,13.22
2023-04-06T01:51:17.781Z,13.20
2023-04-06T01:53:53.030Z,13.16
2023-04-06T01:56:23.581Z,13.14
2023-04-06T01:59:00.437Z,13.08
2023-04-06T02:01:32.545Z,13.05
2023-04-06T02:03:59.567Z,13.07
2023-04-06T02:06:26.474Z,13.08
2023-04-06T02:08:53.517Z,13.06
2023-04-06T02:11:20.862Z,13.03
2023-04-06T02:13:51.238Z,13.01
2023-04-06T02:16:18.898Z,13.02
2023-04-06T02:18:47.064Z,12.99
2023-04-06T02:21:14.090Z,12.97
2023-04-06T02:23:41.014Z,12.98
2023-04-06T02:26:08.166Z,12.98
2023-04-06T02:28:35.126Z,12.97
2023-04-06T02:31:02.276Z,12.97
2023-04-06T02:33:30.074Z,12.95
2023-04-06T02:35:57.502Z,12.93
2023-04-06T02:38:24.529Z,12.92
2023-04-06T02:40:52.846Z,12.90
2023-04-06T02:43:23.032Z,12.87
2023-04-06T02:45:54.391Z,12.84
2023-04-06T02:48:23.935Z,12.78
2023-04-06T02:50:50.976Z,12.75
2023-04-06T02:53:17.991Z,12.72
2023-04-06T02:55:45.131Z,12.71
2023-04-06T02:58:12.156Z,12.67
2023-04-06T03:00:45.712Z,12.64
2023-04-06T03:03:12.854Z,12.62
2023-04-06T03:05:40.924Z,12.60
2023-04-06T03:08:08.479Z,12.59
2023-04-06T03:10:41.571Z,12.55
2023-04-06T03:13:08.775Z,12.55
2023-04-06T03:15:56.847Z,12.54
2023-04-06T03:18:25.662Z,12.56
2023-04-06T03:20:56.794Z,12.56
2023-04-06T03:23:30.071Z,12.56
2023-04-06T03:26:00.402Z,12.53
2023-04-06T03:28:27.533Z,12.50
2023-04-06T03:30:58.105Z,12.49
2023-04-06T03:33:57.223Z,12.46
2023-04-06T03:36:28.869Z,12.46
2023-04-06T03:41:59.977Z,12.37
2023-04-06T03:44:38.839Z,12.36
2023-04-06T03:47:07.025Z,12.32
2023-04-06T03:49:34.021Z,12.32
2023-04-06T03:52:02.211Z,12.29
2023-04-06T03:54:29.874Z,12.26
2023-04-06T03:56:57.458Z,12.23
2023-04-06T03:59:27.433Z,12.21
2023-04-06T04:01:54.593Z,12.14
2023-04-06T04:04:21.551Z,12.06
2023-04-06T04:06:48.822Z,12.02
2023-04-06T04:09:15.961Z,12.00
2023-04-06T04:11:43.091Z,12.01
2023-04-06T04:14:10.063Z,11.99
2023-04-06T04:16:37.180Z,11.97
2023-04-06T04:19:04.121Z,11.95
2023-04-06T04:21:32.568Z,11.94
2023-04-06T04:24:03.984Z,11.96
2023-04-06T04:26:34.173Z,11.98
2023-04-06T04:29:01.212Z,11.97
2023-04-06T04:31:28.249Z,11.97
2023-04-06T04:34:01.358Z,11.92
2023-04-06T04:36:31.419Z,11.90
2023-04-06T04:39:02.610Z,11.87
2023-04-06T04:41:33.087Z,11.85
2023-04-06T04:44:01.070Z,11.85
2023-04-06T04:46:28.403Z,11.84
2023-04-06T04:48:55.623Z,11.77
2023-04-06T04:51:22.860Z,11.76
2023-04-06T04:54:06.785Z,11.73
2023-04-06T04:56:34.587Z,11.68
2023-04-06T04:59:22.773Z,11.66
2023-04-06T05:01:57.302Z,11.58
2023-04-06T05:04:33.853Z,11.57
2023-04-06T05:07:07.507Z,11.57
2023-04-06T05:09:36.583Z,11.58
2023-04-06T05:12:04.118Z,11.59
2023-04-06T05:14:36.298Z,11.56
2023-04-06T05:17:06.788Z,11.58
2023-04-06T05:19:33.778Z,11.59
2023-04-06T05:22:01.705Z,11.59
2023-04-06T05:24:29.769Z,11.58
2023-04-06T05:26:57.162Z,11.61
2023-04-06T05:29:24.932Z,11.63
2023-04-06T05:31:52.475Z,11.63
2023-04-06T05:34:19.995Z,11.67
2023-04-06T05:36:48.816Z,11.69
2023-04-06T05:39:21.985Z,11.72
2023-04-06T05:41:51.705Z,11.74
2023-04-06T05:44:29.244Z,11.75
2023-04-06T05:47:04.596Z,11.75
2023-04-06T05:49:31.901Z,11.74
2023-04-06T05:51:59.304Z,11.75
2023-04-06T05:54:26.421Z,11.66
2023-04-06T05:56:59.588Z,11.68
2023-04-06T05:59:26.670Z,11.68
2023-04-06T06:01:54.886Z,11.69
2023-04-06T06:04:23.166Z,11.71
2023-04-06T06:06:53.619Z,11.70
2023-04-06T06:09:27.272Z,11.67
2023-04-06T06:12:06.337Z,11.70
2023-04-06T06:14:33.587Z,11.72
2023-04-06T06:17:00.842Z,11.72
2023-04-06T06:19:28.964Z,11.79
2023-04-06T06:22:02.719Z,11.85
2023-04-06T06:24:31.627Z,11.90
2023-04-06T06:27:00.300Z,12.25
2023-04-06T06:29:29.986Z,12.66
2023-04-06T06:31:57.024Z,13.53
2023-04-06T06:34:24.928Z,14.46
2023-04-06T06:36:52.930Z,15.33
2023-04-06T06:39:20.725Z,16.03
2023-04-06T06:41:48.859Z,16.70
2023-04-06T06:44:17.830Z,17.44
2023-04-06T06:46:44.739Z,18.13
2023-04-06T06:49:13.458Z,18.77
2023-04-06T06:51:40.520Z,19.15
2023-04-06T06:54:08.522Z,19.76
2023-04-06T06:56:38.066Z,19.64
2023-04-06T06:59:07.051Z,19.56
2023-04-06T07:01:36.192Z,19.66
2023-04-06T07:04:03.287Z,19.82
2023-04-06T07:06:30.540Z,20.45
2023-04-06T07:08:57.571Z,21.33
2023-04-06T07:11:24.507Z,21.92
2023-04-06T07:13:51.476Z,22.39
2023-04-06T07:16:18.377Z,23.12
2023-04-06T07:18:45.298Z,23.63
2023-04-06T07:21:12.308Z,24.17
2023-04-06T07:23:39.287Z,24.15
2023-04-06T07:26:07.766Z,24.03
2023-04-06T07:28:34.972Z,24.48
2023-04-06T07:31:02.790Z,24.46
2023-04-06T07:33:31.072Z,24.08
2023-04-06T07:36:00.016Z,23.55
2023-04-06T07:38:27.077Z,23.06
2023-04-06T07:40:54.276Z,22.54
2023-04-06T07:43:21.356Z,22.21
2023-04-06T07:45:48.949Z,21.91
2023-04-06T07:48:17.444Z,21.70
2023-04-06T07:50:45.087Z,21.53
2023-04-06T07:53:12.115Z,21.31
2023-04-06T07:55:39.862Z,21.14
2023-04-06T07:58:06.846Z,20.92
2023-04-06T08:00:34.105Z,20.70
2023-04-06T08:03:01.170Z,20.57
2023-04-06T08:05:28.717Z,20.40
2023-04-06T08:07:55.815Z,20.54
2023-04-06T08:10:22.754Z,20.79
2023-04-06T08:12:49.708Z,21.64
2023-04-06T08:15:19.154Z,22.70
2023-04-06T08:17:46.224Z,23.83
2023-04-06T08:20:13.189Z,25.03
2023-04-06T08:22:40.084Z,26.04
2023-04-06T08:25:07.363Z,26.45
2023-04-06T08:27:34.348Z,26.77
2023-04-06T08:30:01.310Z,27.18
2023-04-06T08:32:28.312Z,27.04
2023-04-06T08:34:56.511Z,27.27
2023-04-06T08:37:23.841Z,27.04
2023-04-06T08:39:51.418Z,26.86
2023-04-06T08:42:21.727Z,26.70
2023-04-06T08:44:52.500Z,26.58
2023-04-06T08:47:21.689Z,26.30
2023-04-06T08:49:51.915Z,25.99
2023-04-06T08:52:20.092Z,25.67
2023-04-06T08:54:47.198Z,25.80
2023-04-06T08:57:14.683Z,25.88
2023-04-06T08:59:42.268Z,25.78
2023-04-06T09:02:18.270Z,25.80
2023-04-06T09:04:48.927Z,25.87
2023-04-06T09:07:17.015Z,26.53
2023-04-06T09:09:49.126Z,27.27
2023-04-06T09:12:30.494Z,28.34
2023-04-06T09:14:59.170Z,28.94
2023-04-06T09:17:34.807Z,29.64
2023-04-06T09:20:03.479Z,30.60
2023-04-06T09:22:40.782Z,31.86
2023-04-06T09:25:09.221Z,32.92
2023-04-06T09:27:38.001Z,33.55
2023-04-06T09:30:17.022Z,33.30
2023-04-06T09:32:49.046Z,31.83
2023-04-06T09:35:16.521Z,30.80
2023-04-06T09:37:44.960Z,29.27
2023-04-06T09:40:12.517Z,28.47
2023-04-06T09:42:42.672Z,28.32
2023-04-06T09:45:10.316Z,27.53
2023-04-06T09:47:38.273Z,27.25
2023-04-06T09:50:06.250Z,27.72
2023-04-06T09:52:39.615Z,27.56
2023-04-06T09:55:09.183Z,27.51
2023-04-06T09:57:51.697Z,27.08
2023-04-06T10:00:23.359Z,27.86
2023-04-06T10:02:59.437Z,27.58
2023-04-06T10:05:41.511Z,27.91
2023-04-06T10:08:11.258Z,27.85
2023-04-06T10:10:38.724Z,27.59
2023-04-06T10:13:06.959Z,27.59
2023-04-06T10:15:35.202Z,27.14
2023-04-06T10:18:03.513Z,26.88
2023-04-06T10:20:52.860Z,25.86
2023-04-06T10:23:31.366Z,25.49
2023-04-06T10:26:00.321Z,25.35
2023-04-06T10:28:31.352Z,24.67
2023-04-06T10:31:00.193Z,24.58
2023-04-06T10:33:27.291Z,25.06
2023-04-06T10:35:55.067Z,24.85
2023-04-06T10:38:23.162Z,24.68
2023-04-06T10:40:50.405Z,23.17
2023-04-06T10:43:22.272Z,24.08
2023-04-06T10:46:01.551Z,24.19
2023-04-06T10:48:42.811Z,24.16
2023-04-06T10:51:12.609Z,23.80
2023-04-06T10:53:39.625Z,23.53
2023-04-06T10:56:14.602Z,23.14
2023-04-06T10:58:48.193Z,22.87
2023-04-06T11:01:19.642Z,22.82
2023-04-06T11:03:48.182Z,22.81
2023-04-06T11:06:23.716Z,22.82
2023-04-06T11:08:52.062Z,22.45
2023-04-06T11:11:21.374Z,22.41
2023-04-06T11:13:50.006Z,22.28
2023-04-06T11:16:27.539Z,21.96
2023-04-06T11:19:01.967Z,21.75
2023-04-06T11:21:38.054Z,21.35
2023-04-06T11:24:20.454Z,21.43
2023-04-06T11:26:53.986Z,21.34
2023-04-06T11:29:26.670Z,21.28
2023-04-06T11:31:55.700Z,21.12
2023-04-06T11:34:34.980Z,20.99
2023-04-06T11:37:07.115Z,21.19
2023-04-06T11:39:51.785Z,21.26
2023-04-06T11:42:26.335Z,21.21
2023-04-06T11:44:56.214Z,21.07
2023-04-06T11:47:31.610Z,21.00
2023-04-06T11:50:10.942Z,20.80
2023-04-06T11:52:39.412Z,20.61
2023-04-06T11:55:17.762Z,20.45
2023-04-06T11:57:45.139Z,20.42
2023-04-06T12:00:13.384Z,20.48
2023-04-06T12:02:41.029Z,20.52
2023-04-06T12:05:12.762Z,20.43
2023-04-06T12:10:07.412Z,19.36
2023-04-06T12:12:34.405Z,19.20
2023-04-06T12:15:01.394Z,19.01
2023-04-06T12:17:28.406Z,19.03
2023-04-06T12:20:01.805Z,19.28
2023-04-06T12:22:32.126Z,19.46
2023-04-06T12:24:59.066Z,19.62
2023-04-06T12:27:26.383Z,19.64
2023-04-06T12:29:53.420Z,19.61
2023-04-06T12:32:20.567Z,19.33
2023-04-06T12:34:47.450Z,18.72
2023-04-06T12:37:14.385Z,19.31
2023-04-06T12:39:41.686Z,19.45
2023-04-06T12:42:09.021Z,19.65
2023-04-06T12:44:36.114Z,19.69
2023-04-06T12:47:03.706Z,19.76
2023-04-06T12:49:31.628Z,19.46
2023-04-06T12:51:59.353Z,19.38
2023-04-06T12:54:27.913Z,19.19
2023-04-06T12:56:54.888Z,19.10
2023-04-06T12:59:22.142Z,18.91
2023-04-06T13:01:51.937Z,18.87
2023-04-06T13:04:19.011Z,18.57
2023-04-06T13:06:46.110Z,18.78
2023-04-06T13:09:13.073Z,18.91
2023-04-06T13:11:42.568Z,18.59
2023-04-06T13:14:09.748Z,18.69
2023-04-06T13:16:37.524Z,18.68
2023-04-06T13:19:04.536Z,18.78
2023-04-06T13:21:31.627Z,18.90
2023-04-06T13:24:02.089Z,18.94
2023-04-06T13:26:29.803Z,19.01
2023-04-06T13:28:57.874Z,18.89
2023-04-06T13:31:24.942Z,18.81
2023-04-06T13:33:51.985Z,18.73
2023-04-06T13:36:18.914Z,18.95
2023-04-06T13:38:46.455Z,19.01
2023-04-06T13:41:22.162Z,19.07
2023-04-06T13:43:49.559Z,19.17
2023-04-06T13:46:16.631Z,19.19
2023-04-06T13:48:44.532Z,19.12
2023-04-06T13:51:12.825Z,19.11
2023-04-06T13:53:41.726Z,19.11
2023-04-06T13:56:09.448Z,19.04
2023-04-06T13:58:37.457Z,18.90
2023-04-06T14:01:11.152Z,18.85
2023-04-06T14:03:40.729Z,18.83
2023-04-06T14:06:20.881Z,18.85
2023-04-06T14:08:54.501Z,18.82
2023-04-06T14:11:21.542Z,18.77
2023-04-06T14:13:48.580Z,18.78
2023-04-06T14:16:16.380Z,18.81
2023-04-06T14:18:43.801Z,18.91
2023-04-06T14:21:10.969Z,18.90
2023-04-06T14:23:38.253Z,18.95
2023-04-06T14:26:06.438Z,19.03
2023-04-06T14:28:34.681Z,19.10
2023-04-06T14:31:05.148Z,19.14
2023-04-06T14:33:32.475Z,19.20
2023-04-06T14:35:59.402Z,19.25
2023-04-06T14:38:26.408Z,19.19
2023-04-06T14:40:53.403Z,19.16
2023-04-06T14:43:22.999Z,19.04
2023-04-06T14:45:50.129Z,19.08
2023-04-06T14:48:18.612Z,19.10
2023-04-06T14:50:58.741Z,19.12
2023-04-06T14:53:26.172Z,19.05
2023-04-06T14:55:53.944Z,19.07
2023-04-06T14:58:21.450Z,19.08
2023-04-06T15:00:48.871Z,19.02
2023-04-06T15:03:16.741Z,18.92
2023-04-06T15:05:43.909Z,18.78
2023-04-06T15:08:10.948Z,18.73
2023-04-06T15:10:37.895Z,18.77
2023-04-06T15:13:04.865Z,18.79
2023-04-06T15:15:31.896Z,18.72
2023-04-06T15:17:58.985Z,18.83
2023-04-06T15:20:26.035Z,18.89
2023-04-06T15:22:52.967Z,18.77
2023-04-06T15:25:19.937Z,18.63
2023-04-06T15:27:46.871Z,18.59
2023-04-06T15:30:14.163Z,18.61
2023-04-06T15:32:41.414Z,18.66
2023-04-06T15:35:13.578Z,18.69
2023-04-06T15:37:40.528Z,18.63
2023-04-06T15:40:08.237Z,18.70
2023-04-06T15:42:35.291Z,18.69
2023-04-06T15:45:02.674Z,18.72
2023-04-06T15:47:29.688Z,18.76
2023-04-06T15:49:56.834Z,18.71
2023-04-06T15:52:23.885Z,18.70
2023-04-06T15:54:50.885Z,18.73
2023-04-06T15:57:17.832Z,18.48
2023-04-06T15:59:44.996Z,18.46
2023-04-06T16:02:13.216Z,18.42
2023-04-06T16:04:40.241Z,18.38
2023-04-06T16:07:07.229Z,18.51
2023-04-06T16:09:34.261Z,18.37
2023-04-06T16:12:01.643Z,18.39
2023-04-06T16:14:28.484Z,18.47
2023-04-06T16:16:55.486Z,18.45
2023-04-06T16:19:22.507Z,18.47
2023-04-06T16:21:49.585Z,18.40
2023-04-06T16:24:16.489Z,18.34
2023-04-06T16:26:44.673Z,18.42
2023-04-06T16:29:11.981Z,18.44
2023-04-06T16:31:39.012Z,18.51
2023-04-06T16:34:06.204Z,18.45
2023-04-06T16:36:34.003Z,18.35
2023-04-06T16:39:02.567Z,18.28
2023-04-06T16:41:32.439Z,18.24
2023-04-06T16:43:59.438Z,18.10
2023-04-06T16:46:33.655Z,18.14
2023-04-06T16:49:01.961Z,18.11
2023-04-06T16:51:29.355Z,18.18
2023-04-06T16:53:56.312Z,18.10
2023-04-06T16:56:23.161Z,18.15
2023-04-06T16:58:50.413Z,18.04
2023-04-06T17:01:26.430Z,18.06
2023-04-06T17:03:54.889Z,18.11
2023-04-06T17:06:22.420Z,18.09
2023-04-06T17:08:51.126Z,18.06
2023-04-06T17:11:21.641Z,17.87
2023-04-06T17:13:52.703Z,17.91
2023-04-06T17:16:21.073Z,17.94
2023-04-06T17:18:48.128Z,17.75
2023-04-06T17:21:17.078Z,17.71
2023-04-06T17:23:44.605Z,17.73
2023-04-06T17:26:11.676Z,17.57
2023-04-06T17:28:38.880Z,17.65
2023-04-06T17:31:11.095Z,17.63
2023-04-06T17:33:39.957Z,17.52
2023-04-06T17:36:09.952Z,17.49
2023-04-06T17:38:37.077Z,17.45
2023-04-06T17:41:07.615Z,17.26
2023-04-06T17:43:34.653Z,17.25
2023-04-06T17:46:01.815Z,17.24
2023-04-06T17:48:30.032Z,17.14
2023-04-06T17:50:57.042Z,17.13
2023-04-06T17:53:24.095Z,17.13
2023-04-06T17:55:51.140Z,17.05
2023-04-06T17:58:18.040Z,16.97
2023-04-06T18:00:44.905Z,16.83
2023-04-06T18:03:12.092Z,16.84
2023-04-06T18:05:39.788Z,16.57
2023-04-06T18:08:06.631Z,16.70
2023-04-06T18:10:39.170Z,16.72
2023-04-06T18:13:07.258Z,16.74
2023-04-06T18:15:38.409Z,16.74
2023-04-06T18:18:07.598Z,16.66
2023-04-06T18:20:39.893Z,16.65
2023-04-06T18:23:06.917Z,16.66
2023-04-06T18:25:38.625Z,16.66
2023-04-06T18:28:06.004Z,16.64
2023-04-06T18:30:32.871Z,16.65
2023-04-06T18:33:00.629Z,16.65
2023-04-06T18:38:23.895Z,16.59
2023-04-06T18:40:51.516Z,16.62
2023-04-06T18:43:18.508Z,16.52
2023-04-06T18:45:45.543Z,16.59
2023-04-06T18:48:13.851Z,16.56
2023-04-06T18:50:41.227Z,16.58
2023-04-06T18:53:08.501Z,16.51
2023-04-06T18:55:36.413Z,16.51
2023-04-06T18:58:03.294Z,16.51
2023-04-06T19:00:30.494Z,16.52
2023-04-06T19:02:57.488Z,16.50
2023-04-06T19:05:24.550Z,16.47
2023-04-06T19:07:52.809Z,16.48
2023-04-06T19:10:20.452Z,16.45
2023-04-06T19:12:48.105Z,16.44
2023-04-06T19:15:15.472Z,16.42
2023-04-06T19:17:42.692Z,16.39
2023-04-06T19:20:10.192Z,16.36
2023-04-06T19:22:37.981Z,16.33
2023-04-06T19:25:06.128Z,16.31
2023-04-06T19:27:33.144Z,16.30
2023-04-06T19:30:00.781Z,16.30
2023-04-06T19:32:27.833Z,16.27
2023-04-06T19:34:54.815Z,16.27
2023-04-06T19:37:22.113Z,16.25
2023-04-06T19:39:49.020Z,16.27
2023-04-06T19:42:16.113Z,16.26
2023-04-06T19:44:43.087Z,16.29
2023-04-06T19:47:11.987Z,16.28
2023-04-06T19:49:40.775Z,16.31
2023-04-06T19:52:10.152Z,16.32
2023-04-06T19:54:38.501Z,16.31
2023-04-06T19:57:05.686Z,16.30
2023-04-06T19:59:34.881Z,16.29
2023-04-06T20:02:02.381Z,16.29
2023-04-06T20:04:29.491Z,16.31
2023-04-06T20:06:56.456Z,16.31
2023-04-06T20:09:24.605Z,16.31
2023-04-06T20:11:54.071Z,16.29
2023-04-06T20:14:22.406Z,16.26
2023-04-06T20:16:50.769Z,16.25
2023-04-06T20:19:19.302Z,16.25
2023-04-06T20:21:46.900Z,16.22
2023-04-06T20:24:14.556Z,16.26
2023-04-06T20:26:41.653Z,16.27
2023-04-06T20:29:08.639Z,16.23
2023-04-06T20:31:35.585Z,16.26
2023-04-06T20:34:02.540Z,16.27
2023-04-06T20:36:31.376Z,16.27
2023-04-06T20:38:58.315Z,16.24
2023-04-06T20:41:25.410Z,16.27
2023-04-06T20:43:52.420Z,16.26
2023-04-06T20:46:19.407Z,16.22
2023-04-06T20:48:46.469Z,16.21
2023-04-06T20:51:23.326Z,16.19
2023-04-06T20:53:50.467Z,16.20
2023-04-06T20:56:21.930Z,16.20
2023-04-06T20:58:49.735Z,16.21
2023-04-06T21:01:20.046Z,16.20
2023-04-06T21:03:46.962Z,16.15
2023-04-06T21:06:14.248Z,16.13
2023-04-06T21:08:41.210Z,16.17
2023-04-06T21:11:08.588Z,16.14
2023-04-06T21:13:36.922Z,16.13
2023-04-06T21:16:03.979Z,16.18
2023-04-06T21:18:32.076Z,16.15
2023-04-06T21:20:59.478Z,16.15
2023-04-06T21:23:26.538Z,16.11
2023-04-06T21:25:57.005Z,16.11
2023-04-06T21:28:25.359Z,16.10
2023-04-06T21:30:53.665Z,16.09
2023-04-06T21:33:20.731Z,16.09
2023-04-06T21:35:47.838Z,16.10
2023-04-06T21:38:14.763Z,16.09
2023-04-06T21:40:41.836Z,16.08
2023-04-06T21:43:09.020Z,16.10
2023-04-06T21:45:35.990Z,16.09
2023-04-06T21:48:03.061Z,16.11
2023-04-06T21:50:30.043Z,16.11
2023-04-06T21:52:57.010Z,16.12
2023-04-06T21:55:23.910Z,16.10
2023-04-06T21:57:51.060Z,16.06
2023-04-06T22:00:18.662Z,16.05
2023-04-06T22:02:46.110Z,16.01
2023-04-06T22:05:14.593Z,15.96
2023-04-06T22:07:42.261Z,15.93
2023-04-06T22:10:09.244Z,15.92
2023-04-06T22:12:37.138Z,15.89
2023-04-06T22:15:04.327Z,15.83
2023-04-06T22:17:34.632Z,15.80
2023-04-06T22:20:01.711Z,15.75
2023-04-06T22:22:28.574Z,15.73
2023-04-06T22:24:57.976Z,15.69
2023-04-06T22:27:26.023Z,15.65
2023-04-06T22:29:53.106Z,15.62
2023-04-06T22:32:20.145Z,15.58
2023-04-06T22:34:47.337Z,15.57
2023-04-06T22:37:14.246Z,15.49
2023-04-06T22:39:43.077Z,15.45
2023-04-06T22:42:09.918Z,15.42
2023-04-06T22:44:37.072Z,15.39
2023-04-06T22:47:04.016Z,15.36
2023-04-06T22:49:31.072Z,15.33
2023-04-06T22:51:57.990Z,15.26
2023-04-06T22:54:25.016Z,15.22
2023-04-06T22:56:51.934Z,15.19
2023-04-06T22:59:18.980Z,15.16
2023-04-06T23:01:45.922Z,15.09
2023-04-06T23:04:13.099Z,15.03
2023-04-06T23:06:40.004Z,14.99
2023-04-06T23:09:07.048Z,14.97
2023-04-06T23:11:34.092Z,14.94
2023-04-06T23:14:01.500Z,14.93
2023-04-06T23:16:28.448Z,14.90
2023-04-06T23:18:56.355Z,14.86
2023-04-06T23:21:23.235Z,14.83
2023-04-06T23:23:50.175Z,14.80
2023-04-06T23:26:17.234Z,14.78
2023-04-06T23:28:44.084Z,14.73
2023-04-06T23:31:11.028Z,14.73
2023-04-06T23:33:37.985Z,14.69
2023-04-06T23:36:05.404Z,14.65
2023-04-06T23:38:33.963Z,14.61
2023-04-06T23:41:01.074Z,14.62
2023-04-06T23:43:28.005Z,14.57
2023-04-06T23:45:54.916Z,14.59
2023-04-06T23:48:21.936Z,14.53
2023-04-06T23:50:48.814Z,14.51
2023-04-06T23:53:15.764Z,14.48
2023-04-06T23:55:42.653Z,14.47
2023-04-06T23:58:09.530Z,14.43
